.
WxDataArchive / Data Records for 2009-09-26
2009-09-25 September 2009 2009-09-27

Data Records for Saturday, 26 September 2009

Time	Temp	Chill	HIndex	Humid	Dewpt	 Wind 	HiWind	WindDir	Rain 	Barom 
-----	----	-----	------	-----	-----	------	------	-------	-----	----- 
00:00	62.9	62.9	62.9	73	54.1	1	3	90	0.00	30.099 
00:05	62.9	62.9	62.9	73	54.1	1	3	90	0.00	30.099 
00:10	62.7	62.7	62.7	74	54.3	1	3	90	0.00	30.099 
00:15	62.7	62.7	62.7	74	54.3	1	2	90	0.00	30.090 
00:20	62.6	62.6	62.6	75	54.6	1	3	90	0.00	30.090 
00:25	62.6	62.6	62.6	75	54.6	1	2	90	0.00	30.090 
00:30	62.4	62.4	62.4	76	54.7	0	3	68	0.00	30.091 
00:35	62.4	62.4	62.4	76	54.7	1	2	68	0.00	30.091 
00:40	62.4	62.4	62.4	76	54.7	0	2	68	0.00	30.091 
00:45	62.4	62.4	62.4	76	54.7	0	2	68	0.00	30.088 
00:50	62.4	62.4	62.4	77	55.1	0	2	68	0.00	30.088 
00:55	62.4	62.4	62.4	77	55.1	0	1	68	0.00	30.088 
01:00	62.4	62.4	62.4	77	55.1	0	2	68	0.00	30.083 
01:05	62.4	62.4	62.4	77	55.1	0	3	68	0.00	30.083 
01:10	62.4	62.4	62.4	77	55.1	0	3	68	0.00	30.083 
01:15	62.4	62.4	62.4	78	55.4	0	1	68	0.00	30.075 
01:20	62.3	62.3	62.3	79	55.7	0	2	68	0.00	30.075 
01:25	62.3	62.3	62.3	81	56.4	0	2	68	0.00	30.075 
01:30	62.1	62.1	62.1	82	56.5	0	2	68	0.00	30.069 
01:35	61.8	61.8	61.8	83	56.6	0	1	68	0.01	30.069 
01:40	61.6	61.6	61.6	84	56.7	0	0	---	0.00	30.069 
01:45	61.5	61.5	61.5	85	56.9	0	1	68	0.00	30.062 
01:50	61.3	61.3	61.3	86	57.1	0	1	68	0.00	30.062 
01:55	61.2	61.2	61.2	87	57.3	0	0	---	0.00	30.062 
02:00	61.0	61.0	61.0	87	57.1	0	1	68	0.00	30.056 
02:05	60.9	60.9	60.9	88	57.3	0	1	68	0.00	30.056 
02:10	60.7	60.7	60.7	88	57.1	0	1	68	0.00	30.056 
02:15	60.7	60.7	60.7	89	57.4	0	1	68	0.00	30.051 
02:20	60.7	60.7	60.7	88	57.1	0	1	68	0.00	30.051 
02:25	60.7	60.7	60.7	88	57.1	0	3	68	0.00	30.051 
02:30	60.7	60.7	60.7	88	57.1	0	1	68	0.00	30.045 
02:35	60.9	60.9	60.9	88	57.3	0	1	68	0.00	30.045 
02:40	60.9	60.9	60.9	88	57.3	0	2	68	0.00	30.045 
02:45	60.9	60.9	60.9	88	57.3	0	0	---	0.00	30.043 
02:50	60.9	60.9	60.9	88	57.3	0	1	68	0.00	30.043 
02:55	60.9	60.9	60.9	88	57.3	0	3	90	0.01	30.043 
03:00	60.9	60.9	60.9	88	57.3	0	1	90	0.00	30.041 
03:05	60.7	60.7	60.7	88	57.1	0	2	90	0.00	30.041 
03:10	60.9	60.9	60.9	89	57.6	0	1	90	0.00	30.041 
03:15	60.9	60.9	60.9	89	57.6	0	0	---	0.00	30.038 
03:20	60.9	60.9	60.9	89	57.6	0	0	---	0.00	30.038 
03:25	60.9	60.9	60.9	89	57.6	0	0	---	0.00	30.038 
03:30	60.9	60.9	60.9	89	57.6	0	1	90	0.00	30.030 
03:35	60.7	60.7	60.7	89	57.4	0	0	---	0.00	30.030 
03:40	60.7	60.7	60.7	89	57.4	0	1	90	0.00	30.030 
03:45	60.7	60.7	60.7	89	57.4	0	0	---	0.00	30.025 
03:50	60.7	60.7	60.7	89	57.4	0	1	90	0.00	30.025 
03:55	60.7	60.7	60.7	89	57.4	0	0	---	0.00	30.025 
04:00	60.7	60.7	60.7	90	57.7	0	0	---	0.00	30.022 
04:05	60.7	60.7	60.7	90	57.7	0	1	90	0.00	30.022 
04:10	60.7	60.7	60.7	89	57.4	0	0	---	0.00	30.022 
04:15	60.5	60.5	60.5	90	57.5	0	0	---	0.00	30.020 
04:20	60.5	60.5	60.5	90	57.5	0	0	---	0.00	30.020 
04:25	60.5	60.5	60.5	90	57.5	0	0	---	0.00	30.020 
04:30	60.5	60.5	60.5	90	57.5	0	0	---	0.00	30.015 
04:35	60.7	60.7	60.7	90	57.7	0	0	---	0.00	30.015 
04:40	60.5	60.5	60.5	91	57.9	0	1	90	0.00	30.015 
04:45	60.5	60.5	60.5	91	57.9	0	0	---	0.00	30.016 
04:50	60.7	60.7	60.7	91	58.1	0	0	---	0.00	30.016 
04:55	60.7	60.7	60.7	91	58.1	0	1	90	0.00	30.016 
05:00	60.7	60.7	60.7	92	58.4	0	1	90	0.00	30.011 
05:05	60.7	60.7	60.7	92	58.4	0	1	90	0.00	30.011 
05:10	60.7	60.7	60.7	92	58.4	0	1	90	0.00	30.011 
05:15	60.5	60.5	60.5	92	58.2	0	0	---	0.00	30.012 
05:20	60.5	60.5	60.5	93	58.5	0	1	90	0.00	30.012 
05:25	60.5	60.5	60.5	93	58.5	0	0	---	0.00	30.012 
05:30	60.5	60.5	60.5	93	58.5	0	0	---	0.00	30.011 
05:35	60.5	60.5	60.5	93	58.5	0	0	---	0.00	30.011 
05:40	60.5	60.5	60.5	93	58.5	0	0	---	0.00	30.011 
05:45	60.4	60.4	60.4	93	58.4	0	0	---	0.00	30.008 
05:50	60.4	60.4	60.4	94	58.7	0	0	---	0.00	30.008 
05:55	60.4	60.4	60.4	94	58.7	0	0	---	0.00	30.008 
06:00	60.4	60.4	60.4	94	58.7	0	0	---	0.00	30.003 
06:05	60.4	60.4	60.4	94	58.7	0	0	---	0.00	30.003 
06:10	60.4	60.4	60.4	94	58.7	0	0	---	0.00	30.003 
06:15	60.4	60.4	60.4	94	58.7	0	0	---	0.00	30.001 
06:20	60.4	60.4	60.4	94	58.7	0	0	---	0.00	30.001 
06:25	60.4	60.4	60.4	95	59.0	0	0	---	0.00	30.001 
06:30	60.5	60.5	60.5	95	59.1	0	0	---	0.00	29.998 
06:35	60.5	60.5	60.5	95	59.1	0	0	---	0.00	29.998 
06:40	60.5	60.5	60.5	95	59.1	0	0	---	0.00	29.998 
06:45	60.5	60.5	60.5	95	59.1	0	0	---	0.00	29.993 
06:50	60.5	60.5	60.5	95	59.1	0	0	---	0.00	29.993 
06:55	60.5	60.5	60.5	95	59.1	0	0	---	0.00	29.993 
07:00	60.5	60.5	60.5	95	59.1	0	0	---	0.00	29.985 
07:05	60.5	60.5	60.5	95	59.1	0	0	---	0.00	29.985 
07:10	60.5	60.5	60.5	95	59.1	0	0	---	0.00	29.985 
07:15	60.5	60.5	60.5	95	59.1	0	0	---	0.00	29.981 
07:20	60.7	60.7	60.7	95	59.3	0	0	---	0.00	29.981 
07:25	60.7	60.7	60.7	95	59.3	0	0	---	0.00	29.981 
07:30	60.9	60.9	60.9	95	59.5	0	0	---	0.00	29.981 
07:35	60.9	60.9	60.9	95	59.5	0	0	---	0.00	29.981 
07:40	60.9	60.9	60.9	95	59.5	0	0	---	0.00	29.981 
07:45	60.9	60.9	60.9	96	59.7	0	0	---	0.00	29.980 
07:50	60.9	60.9	60.9	96	59.7	0	0	---	0.00	29.980 
07:55	61.0	61.0	61.0	96	59.8	0	0	---	0.00	29.980 
08:00	61.0	61.0	61.0	96	59.8	0	0	---	0.00	29.980 
08:05	61.2	61.2	61.2	96	60.0	0	0	---	0.00	29.980 
08:10	61.3	61.3	61.3	96	60.1	0	0	---	0.00	29.980 
08:15	61.5	61.5	61.5	96	60.3	0	0	---	0.00	29.981 
08:20	61.5	61.5	61.5	96	60.3	0	0	---	0.00	29.981 
08:25	61.5	61.5	61.5	96	60.3	0	0	---	0.00	29.981 
08:30	61.6	61.6	61.6	96	60.4	0	0	---	0.00	29.978 
08:35	61.6	61.6	61.6	96	60.4	0	1	90	0.00	29.978 
08:40	61.6	61.6	61.6	96	60.4	0	0	---	0.00	29.978 
08:45	61.6	61.6	61.6	96	60.4	0	1	90	0.00	29.980 
08:50	61.5	61.5	61.5	96	60.3	0	1	90	0.00	29.980 
08:55	61.3	61.3	61.3	96	60.1	0	1	158	0.00	29.980 
09:00	61.2	61.2	61.2	95	59.8	0	1	158	0.00	29.982 
09:05	61.2	61.2	61.2	95	59.8	0	1	158	0.00	29.982 
09:10	61.3	61.3	61.3	95	59.9	0	1	158	0.00	29.982 
09:15	61.5	61.5	61.5	95	60.1	0	0	---	0.00	29.982 
09:20	61.6	61.6	61.6	95	60.2	0	0	---	0.00	29.982 
09:25	61.6	61.6	61.6	95	60.2	0	1	158	0.00	29.982 
09:30	61.6	61.6	61.6	94	59.9	0	1	158	0.00	29.993 
09:35	61.8	61.8	61.8	94	60.1	0	1	158	0.00	29.993 
09:40	61.8	61.8	61.8	94	60.1	0	0	---	0.00	29.993 
09:45	61.8	61.8	61.8	94	60.1	0	1	158	0.00	29.982 
09:50	61.8	61.8	61.8	94	60.1	0	1	158	0.00	29.982 
09:55	61.8	61.8	61.8	93	59.8	0	1	158	0.00	29.982 
10:00	61.8	61.8	61.8	93	59.8	0	1	158	0.00	29.971 
10:05	61.8	61.8	61.8	93	59.8	0	1	158	0.00	29.971 
10:10	62.0	62.0	62.0	93	59.9	0	1	158	0.00	29.971 
10:15	62.1	62.1	62.1	93	60.0	0	1	158	0.00	29.980 
10:20	62.0	62.0	62.0	92	59.6	1	3	270	0.00	29.980 
10:25	61.8	61.8	61.8	92	59.4	1	3	270	0.00	29.980 
10:30	61.5	61.5	61.5	92	59.2	1	3	270	0.00	29.977 
10:35	61.3	61.3	61.3	92	59.0	1	2	270	0.00	29.977 
10:40	61.2	61.2	61.2	92	58.9	1	3	270	0.00	29.977 
10:45	61.2	61.2	61.2	92	58.9	0	2	270	0.00	29.981 
10:50	61.2	61.2	61.2	92	58.9	0	2	270	0.00	29.981 
10:55	60.9	60.9	60.9	91	58.3	1	3	270	0.00	29.981 
11:00	61.0	61.0	61.0	91	58.4	0	2	270	0.00	29.976 
11:05	61.2	61.2	61.2	91	58.5	0	2	270	0.00	29.976 
11:10	61.3	61.3	61.3	90	58.3	0	2	270	0.00	29.976 
11:15	61.6	61.6	61.6	89	58.3	0	2	270	0.00	29.971 
11:20	61.8	61.8	61.8	88	58.2	0	2	248	0.00	29.971 
11:25	62.0	62.0	62.0	85	57.4	1	2	248	0.00	29.971 
11:30	62.3	62.3	62.3	83	57.1	0	1	248	0.00	29.983 
11:35	62.6	62.6	62.6	81	56.7	0	2	248	0.00	29.983 
11:40	62.6	62.6	62.6	81	56.7	0	1	248	0.00	29.983 
11:45	62.7	62.7	62.7	81	56.8	0	1	248	0.00	29.966 
11:50	62.9	62.9	62.9	81	57.0	0	1	248	0.00	29.966 
11:55	63.4	63.4	63.4	81	57.5	0	2	315	0.00	29.966 
12:00	63.7	63.7	63.7	80	57.4	0	1	315	0.00	29.965 
12:05	64.0	64.0	64.0	78	57.0	0	2	315	0.00	29.965 
12:10	64.0	64.0	64.0	78	57.0	1	3	315	0.00	29.965 
12:15	64.0	64.0	64.0	78	57.0	1	3	315	0.00	29.966 
12:20	64.3	64.3	64.3	75	56.2	1	3	315	0.00	29.966 
12:25	64.3	64.3	64.3	74	55.8	1	3	315	0.00	29.966 
12:30	64.5	64.5	64.5	75	56.4	1	3	315	0.00	29.966 
12:35	64.7	64.7	64.7	75	56.6	1	3	315	0.00	29.966 
12:40	64.7	64.7	64.7	75	56.6	1	3	270	0.00	29.966 
12:45	65.0	65.0	65.0	76	57.2	1	4	270	0.00	29.961 
12:50	65.3	65.3	65.3	74	56.8	1	2	270	0.00	29.961 
12:55	65.3	65.3	65.3	73	56.4	0	3	270	0.00	29.961 
13:00	65.3	65.3	65.3	73	56.4	0	2	270	0.00	29.944 
13:05	65.8	65.8	65.8	73	56.9	1	3	270	0.00	29.944 
13:10	66.1	66.1	66.1	72	56.8	1	3	270	0.00	29.944 
13:15	66.6	66.6	66.6	71	56.9	1	3	270	0.00	29.943 
13:20	66.4	66.4	66.4	70	56.3	1	3	270	0.00	29.943 
13:25	66.4	66.4	66.4	71	56.7	1	3	270	0.00	29.943 
13:30	66.9	66.9	66.9	69	56.4	1	3	270	0.01	29.932 
13:35	67.1	67.1	67.1	70	57.0	0	2	270	0.00	29.932 
13:40	67.4	67.4	67.4	70	57.3	0	2	270	0.00	29.932 
13:45	68.3	68.3	68.3	71	58.5	1	3	270	0.00	29.921 
13:50	68.9	68.9	68.9	69	58.3	0	2	248	0.00	29.921 
13:55	69.8	69.8	69.8	64	57.1	1	2	270	0.00	29.921 
14:00	69.9	69.9	69.9	62	56.3	1	3	270	0.00	29.917 
14:05	70.3	70.3	70.3	60	55.7	1	4	248	0.00	29.917 
14:10	70.4	70.4	70.4	60	55.8	2	6	270	0.00	29.917 
14:15	70.8	70.8	70.8	62	57.1	1	4	270	0.00	29.909 
14:20	71.1	71.1	71.1	60	56.5	1	3	248	0.00	29.909 
14:25	71.3	71.3	71.3	62	57.6	1	2	248	0.00	29.909 
14:30	70.8	70.8	70.8	58	55.3	1	3	248	0.00	29.896 
14:35	70.4	70.4	70.4	58	54.9	1	3	338	0.00	29.896 
14:40	70.6	70.6	70.6	60	56.0	1	4	292	0.00	29.896 
14:45	70.9	70.9	70.9	60	56.3	1	4	315	0.00	29.890 
14:50	70.8	70.8	70.8	58	55.3	2	4	270	0.00	29.890 
14:55	70.6	70.6	70.6	59	55.6	1	4	270	0.00	29.890 
15:00	70.8	70.8	70.8	59	55.7	1	2	315	0.00	29.884 
15:05	70.8	70.8	70.8	57	54.8	2	4	270	0.00	29.884 
15:10	70.3	70.3	70.3	58	54.8	1	3	292	0.00	29.884 
15:15	70.4	70.4	70.4	60	55.8	0	2	292	0.00	29.875 
15:20	70.6	70.6	70.6	58	55.1	1	3	292	0.00	29.875 
15:25	70.9	70.9	70.9	56	54.4	1	3	292	0.00	29.875 
15:30	71.3	71.3	71.3	59	56.2	0	2	315	0.00	29.865 
15:35	71.1	71.1	71.1	58	55.6	1	4	315	0.00	29.865 
15:40	70.8	70.8	70.8	61	56.7	0	2	338	0.00	29.865 
15:45	70.9	70.9	70.9	59	55.8	0	3	315	0.00	29.853 
15:50	71.3	71.3	71.3	56	54.8	1	3	315	0.00	29.853 
15:55	71.5	71.5	71.5	57	55.5	1	4	292	0.00	29.853 
16:00	71.5	71.5	71.5	58	55.9	1	3	270	0.00	29.838 
16:05	71.5	71.5	71.5	58	55.9	0	1	270	0.00	29.838 
16:10	71.5	71.5	71.5	57	55.5	0	2	270	0.00	29.838 
16:15	71.6	71.6	71.6	58	56.0	1	3	270	0.00	29.836 
16:20	71.3	71.3	71.3	58	55.7	1	3	315	0.00	29.836 
16:25	70.9	70.9	70.9	56	54.4	0	1	315	0.00	29.836 
16:30	70.8	70.8	70.8	57	54.8	1	3	315	0.00	29.833 
16:35	70.6	70.6	70.6	57	54.6	0	1	315	0.00	29.833 
16:40	70.6	70.6	70.6	57	54.6	1	3	292	0.00	29.833 
16:45	70.6	70.6	70.6	60	56.0	0	3	315	0.00	29.827 
16:50	70.8	70.8	70.8	57	54.8	0	3	292	0.00	29.827 
16:55	70.6	70.6	70.6	57	54.6	0	0	---	0.00	29.827 
17:00	70.4	70.4	70.4	56	53.9	0	1	292	0.00	29.836 
17:05	70.4	70.4	70.4	59	55.4	0	1	292	0.00	29.836 
17:10	70.8	70.8	70.8	57	54.8	0	2	292	0.00	29.836 
17:15	70.6	70.6	70.6	58	55.1	0	2	292	0.00	29.828 
17:20	70.6	70.6	70.6	57	54.6	0	1	292	0.00	29.828 
17:25	70.4	70.4	70.4	58	54.9	0	1	292	0.00	29.828 
17:30	70.4	70.4	70.4	58	54.9	0	1	292	0.00	29.832 
17:35	70.3	70.3	70.3	57	54.3	0	1	292	0.00	29.832 
17:40	70.4	70.4	70.4	58	54.9	0	1	292	0.00	29.832 
17:45	70.4	70.4	70.4	57	54.4	0	1	292	0.00	29.834 
17:50	70.4	70.4	70.4	56	53.9	1	3	292	0.00	29.834 
17:55	70.4	70.4	70.4	56	53.9	0	2	292	0.00	29.834 
18:00	70.4	70.4	70.4	56	53.9	0	2	292	0.00	29.831 
18:05	70.3	70.3	70.3	55	53.4	0	1	292	0.00	29.831 
18:10	70.1	70.1	70.1	55	53.2	0	1	292	0.00	29.831 
18:15	69.9	69.9	69.9	56	53.5	0	1	292	0.00	29.836 
18:20	69.9	69.9	69.9	57	54.0	0	1	292	0.00	29.836 
18:25	69.9	69.9	69.9	58	54.4	0	1	292	0.00	29.836 
18:30	69.8	69.8	69.8	57	53.9	0	1	292	0.00	29.829 
18:35	69.8	69.8	69.8	58	54.3	0	1	292	0.00	29.829 
18:40	69.6	69.6	69.6	58	54.2	0	0	---	0.00	29.829 
18:45	69.6	69.6	69.6	59	54.6	0	0	---	0.00	29.824 
18:50	69.4	69.4	69.4	60	54.9	0	0	---	0.00	29.824 
18:55	69.1	69.1	69.1	60	54.6	0	0	---	0.00	29.824 
19:00	68.8	68.8	68.8	61	54.8	0	0	---	0.00	29.824 
19:05	68.4	68.4	68.4	62	54.9	0	0	---	0.00	29.824 
19:10	67.9	67.9	67.9	63	54.8	0	0	---	0.00	29.824 
19:15	67.4	67.4	67.4	65	55.2	0	0	---	0.00	29.824 
19:20	66.8	66.8	66.8	66	55.1	0	0	---	0.00	29.824 
19:25	66.4	66.4	66.4	68	55.5	0	0	---	0.00	29.824 
19:30	66.0	66.0	66.0	69	55.5	0	0	---	0.00	29.822 
19:35	65.5	65.5	65.5	70	55.4	0	0	---	0.00	29.822 
19:40	65.0	65.0	65.0	72	55.7	0	0	---	0.00	29.822 
19:45	64.7	64.7	64.7	73	55.8	0	0	---	0.00	29.818 
19:50	64.2	64.2	64.2	75	56.1	0	0	---	0.00	29.818 
19:55	63.9	63.9	63.9	76	56.2	0	0	---	0.00	29.818 
20:00	63.5	63.5	63.5	77	56.2	0	0	---	0.00	29.817 
20:05	63.2	63.2	63.2	77	55.9	0	0	---	0.00	29.817 
20:10	63.1	63.1	63.1	78	56.1	0	0	---	0.00	29.817 
20:15	62.9	62.9	62.9	79	56.3	0	0	---	0.00	29.812 
20:20	62.6	62.6	62.6	80	56.3	0	0	---	0.00	29.812 
20:25	62.4	62.4	62.4	80	56.1	0	0	---	0.00	29.812 
20:30	62.1	62.1	62.1	81	56.2	0	0	---	0.00	29.813 
20:35	62.0	62.0	62.0	82	56.4	0	0	---	0.00	29.813 
20:40	61.8	61.8	61.8	82	56.2	0	0	---	0.00	29.813 
20:45	61.6	61.6	61.6	83	56.4	0	0	---	0.00	29.812 
20:50	61.5	61.5	61.5	83	56.3	0	0	---	0.00	29.812 
20:55	61.5	61.5	61.5	84	56.6	0	0	---	0.00	29.812 
21:00	61.5	61.5	61.5	84	56.6	0	0	---	0.00	29.810 
21:05	61.5	61.5	61.5	84	56.6	0	0	---	0.00	29.810 
21:10	61.3	61.3	61.3	84	56.4	0	0	---	0.00	29.810 
21:15	61.3	61.3	61.3	84	56.4	0	0	---	0.00	29.807 
21:20	61.2	61.2	61.2	84	56.3	0	0	---	0.00	29.807 
21:25	61.2	61.2	61.2	83	56.0	0	0	---	0.00	29.807 
21:30	61.2	61.2	61.2	83	56.0	0	0	---	0.00	29.805 
21:35	61.2	61.2	61.2	83	56.0	0	0	---	0.00	29.805 
21:40	61.3	61.3	61.3	83	56.1	0	0	---	0.00	29.805 
21:45	61.5	61.5	61.5	83	56.3	0	0	---	0.00	29.803 
21:50	61.8	61.8	61.8	82	56.2	0	1	292	0.00	29.803 
21:55	62.1	62.1	62.1	81	56.2	0	1	292	0.00	29.803 
22:00	62.3	62.3	62.3	81	56.4	0	0	---	0.00	29.801 
22:05	62.4	62.4	62.4	81	56.5	0	1	292	0.00	29.801 
22:10	62.4	62.4	62.4	81	56.5	0	1	292	0.00	29.801 
22:15	62.4	62.4	62.4	81	56.5	0	0	---	0.00	29.797 
22:20	62.4	62.4	62.4	81	56.5	0	0	---	0.00	29.797 
22:25	62.4	62.4	62.4	81	56.5	0	1	292	0.00	29.797 
22:30	62.4	62.4	62.4	81	56.5	0	1	292	0.00	29.795 
22:35	62.4	62.4	62.4	81	56.5	0	1	292	0.00	29.795 
22:40	62.3	62.3	62.3	81	56.4	0	0	---	0.00	29.795 
22:45	62.1	62.1	62.1	81	56.2	0	0	---	0.00	29.792 
22:50	62.0	62.0	62.0	82	56.4	0	0	---	0.00	29.792 
22:55	62.0	62.0	62.0	82	56.4	0	1	292	0.00	29.792 
23:00	61.8	61.8	61.8	83	56.6	0	1	292	0.00	29.791 
23:05	61.8	61.8	61.8	83	56.6	0	0	---	0.00	29.791 
23:10	61.6	61.6	61.6	83	56.4	0	1	292	0.00	29.791 
23:15	61.5	61.5	61.5	84	56.6	0	1	292	0.00	29.782 
23:20	61.5	61.5	61.5	84	56.6	0	0	---	0.00	29.782 
23:25	61.5	61.5	61.5	84	56.6	0	1	292	0.00	29.782 
23:30	61.3	61.3	61.3	84	56.4	0	1	292	0.00	29.777 
23:35	61.3	61.3	61.3	84	56.4	0	1	292	0.00	29.777 
23:40	61.3	61.3	61.3	85	56.7	0	1	292	0.00	29.777 
23:45	61.2	61.2	61.2	85	56.6	0	1	292	0.00	29.767 
23:50	61.2	61.2	61.2	86	57.0	0	1	292	0.00	29.767 
23:55	61.2	61.2	61.2	86	57.0	0	1	292	0.00	29.767 

CoCoRaHS
IN-AL-39
A2 Web Hosting
Creative Commons License
GoDaddy
search engine by freefind advanced

loaded 2018-11-21 01:53:10 • last modified 2010-11-18 10:43:29
Privacy PolicyDisclaimer
• wx.awcolley.com is powered by PmWiki v.2002016 •
• all content (unless otherwise noted) © 2018 A W Colley